sensor_id;sensor_type;location;lat;lon;timestamp;pressure;altitude;pressure_sealevel;temperature;humidity
71476;BME280;59286;59.274;17.974;2023-08-08T00:00:34;98632.47;;;17.19;100.00
71476;BME280;59286;59.274;17.974;2023-08-08T00:02:59;98620.00;;;17.09;100.00
71476;BME280;59286;59.274;17.974;2023-08-08T00:05:25;98633.59;;;17.14;100.00
71476;BME280;59286;59.274;17.974;2023-08-08T00:07:50;98632.84;;;17.17;100.00
71476;BME280;59286;59.274;17.974;2023-08-08T00:10:15;98644.94;;;17.18;100.00
71476;BME280;59286;59.274;17.974;2023-08-08T00:12:41;98641.13;;;17.19;100.00
71476;BME280;59286;59.274;17.974;2023-08-08T00:15:07;98641.13;;;17.19;100.00
71476;BME280;59286;59.274;17.974;2023-08-08T00:17:32;98635.13;;;17.12;100.00
71476;BME280;59286;59.274;17.974;2023-08-08T00:19:58;98640.78;;;17.14;100.00
71476;BME280;59286;59.274;17.974;2023-08-08T00:22:23;98649.84;;;17.16;100.00
71476;BME280;59286;59.274;17.974;2023-08-08T00:24:48;98627.53;;;17.14;100.00
71476;BME280;59286;59.274;17.974;2023-08-08T00:27:14;98625.28;;;17.12;100.00
71476;BME280;59286;59.274;17.974;2023-08-08T00:29:39;98632.84;;;17.17;100.00
71476;BME280;59286;59.274;17.974;2023-08-08T00:32:05;98600.41;;;16.92;100.00
71476;BME280;59286;59.274;17.974;2023-08-08T00:34:30;98621.13;;;17.11;100.00
71476;BME280;59286;59.274;17.974;2023-08-08T00:36:55;98608.31;;;17.03;100.00
71476;BME280;59286;59.274;17.974;2023-08-08T00:39:21;98601.81;;;17.14;100.00
71476;BME280;59286;59.274;17.974;2023-08-08T00:41:46;98587.16;;;16.99;100.00
71476;BME280;59286;59.274;17.974;2023-08-08T00:44:11;98606.00;;;17.08;100.00
71476;BME280;59286;59.274;17.974;2023-08-08T00:46:36;98590.97;;;16.95;100.00
71476;BME280;59286;59.274;17.974;2023-08-08T00:49:02;98590.50;;;17.07;100.00
71476;BME280;59286;59.274;17.974;2023-08-08T00:51:27;98604.50;;;17.07;100.00
71476;BME280;59286;59.274;17.974;2023-08-08T00:53:54;98603.41;;;17.01;100.00
71476;BME280;59286;59.274;17.974;2023-08-08T00:56:19;98597.34;;;17.04;100.00
71476;BME280;59286;59.274;17.974;2023-08-08T00:58:45;98565.63;;;16.90;100.00
71476;BME280;59286;59.274;17.974;2023-08-08T01:01:12;98577.31;;;17.03;100.00
71476;BME280;59286;59.274;17.974;2023-08-08T01:03:37;98585.97;;;17.07;100.00
71476;BME280;59286;59.274;17.974;2023-08-08T01:06:13;98585.25;;;17.03;100.00
71476;BME280;59286;59.274;17.974;2023-08-08T01:08:46;98562.59;;;16.95;100.00
71476;BME280;59286;59.274;17.974;2023-08-08T01:11:14;98569.78;;;16.98;100.00
71476;BME280;59286;59.274;17.974;2023-08-08T01:13:41;98566.34;;;16.98;100.00
71476;BME280;59286;59.274;17.974;2023-08-08T01:16:07;98563.34;;;16.96;100.00
71476;BME280;59286;59.274;17.974;2023-08-08T01:18:33;98546.75;;;16.88;100.00
71476;BME280;59286;59.274;17.974;2023-08-08T01:21:01;98544.44;;;16.94;100.00
71476;BME280;59286;59.274;17.974;2023-08-08T01:23:33;98543.69;;;16.93;100.00
71476;BME280;59286;59.274;17.974;2023-08-08T01:26:00;98529.34;;;16.91;100.00
71476;BME280;59286;59.274;17.974;2023-08-08T01:28:25;98527.84;;;16.86;100.00
71476;BME280;59286;59.274;17.974;2023-08-08T01:30:51;98528.63;;;16.83;100.00
71476;BME280;59286;59.274;17.974;2023-08-08T01:33:17;98487.91;;;16.56;100.00
71476;BME280;59286;59.274;17.974;2023-08-08T01:35:46;98527.09;;;16.82;100.00
71476;BME280;59286;59.274;17.974;2023-08-08T01:38:19;98514.28;;;16.77;100.00
71476;BME280;59286;59.274;17.974;2023-08-08T01:40:45;98481.84;;;16.66;100.00
71476;BME280;59286;59.274;17.974;2023-08-08T01:43:12;98481.78;;;16.73;100.00
71476;BME280;59286;59.274;17.974;2023-08-08T01:45:39;98482.13;;;16.79;100.00
71476;BME280;59286;59.274;17.974;2023-08-08T01:48:09;98483.28;;;16.81;100.00
71476;BME280;59286;59.274;17.974;2023-08-08T01:50:36;98474.63;;;16.74;100.00
71476;BME280;59286;59.274;17.974;2023-08-08T01:53:02;98479.09;;;16.80;100.00
71476;BME280;59286;59.274;17.974;2023-08-08T01:55:27;98472.72;;;16.78;100.00
71476;BME280;59286;59.274;17.974;2023-08-08T01:57:52;98460.25;;;16.78;100.00
71476;BME280;59286;59.274;17.974;2023-08-08T02:00:18;98445.56;;;16.67;100.00
71476;BME280;59286;59.274;17.974;2023-08-08T02:02:43;98435.72;;;16.67;100.00
71476;BME280;59286;59.274;17.974;2023-08-08T02:05:09;98437.22;;;16.72;100.00
71476;BME280;59286;59.274;17.974;2023-08-08T02:07:34;98453.78;;;16.79;100.00
71476;BME280;59286;59.274;17.974;2023-08-08T02:09:59;98453.78;;;16.79;100.00
71476;BME280;59286;59.274;17.974;2023-08-08T02:12:25;98450.03;;;16.77;100.00
71476;BME280;59286;59.274;17.974;2023-08-08T02:14:50;98446.25;;;16.78;100.00
71476;BME280;59286;59.274;17.974;2023-08-08T02:17:16;98436.00;;;16.83;100.00
71476;BME280;59286;59.274;17.974;2023-08-08T02:19:41;98418.63;;;16.79;100.00
71476;BME280;59286;59.274;17.974;2023-08-08T02:22:06;98415.25;;;16.78;100.00
71476;BME280;59286;59.274;17.974;2023-08-08T02:24:32;98411.84;;;16.78;100.00
71476;BME280;59286;59.274;17.974;2023-08-08T02:26:57;98408.88;;;16.72;100.00
71476;BME280;59286;59.274;17.974;2023-08-08T02:29:22;98409.25;;;16.71;100.00
71476;BME280;59286;59.274;17.974;2023-08-08T02:31:48;98408.06;;;16.75;100.00
71476;BME280;59286;59.274;17.974;2023-08-08T02:34:13;98400.94;;;16.72;100.00
71476;BME280;59286;59.274;17.974;2023-08-08T02:36:38;98390.34;;;16.72;100.00
71476;BME280;59286;59.274;17.974;2023-08-08T02:39:04;98382.47;;;16.58;100.00
71476;BME280;59286;59.274;17.974;2023-08-08T02:41:29;98369.31;;;16.51;100.00
71476;BME280;59286;59.274;17.974;2023-08-08T02:43:54;98390.41;;;16.65;100.00
71476;BME280;59286;59.274;17.974;2023-08-08T02:46:20;98391.88;;;16.66;100.00
71476;BME280;59286;59.274;17.974;2023-08-08T02:48:45;98389.28;;;16.59;100.00
71476;BME280;59286;59.274;17.974;2023-08-08T02:51:10;98372.75;;;16.48;100.00
71476;BME280;59286;59.274;17.974;2023-08-08T02:53:36;98365.16;;;16.50;100.00
71476;BME280;59286;59.274;17.974;2023-08-08T02:56:01;98345.22;;;16.35;100.00
71476;BME280;59286;59.274;17.974;2023-08-08T02:58:26;98326.00;;;16.24;100.00
71476;BME280;59286;59.274;17.974;2023-08-08T03:00:52;98355.72;;;16.42;100.00
71476;BME280;59286;59.274;17.974;2023-08-08T03:03:17;98353.50;;;16.37;100.00
71476;BME280;59286;59.274;17.974;2023-08-08T03:05:44;98347.50;;;16.29;100.00
71476;BME280;59286;59.274;17.974;2023-08-08T03:08:10;98307.56;;;16.10;100.00
71476;BME280;59286;59.274;17.974;2023-08-08T03:10:36;98327.13;;;16.23;100.00
71476;BME280;59286;59.274;17.974;2023-08-08T03:13:01;98310.56;;;16.15;100.00
71476;BME280;59286;59.274;17.974;2023-08-08T03:15:27;98307.56;;;16.10;100.00
71476;BME280;59286;59.274;17.974;2023-08-08T03:17:52;98310.91;;;16.21;100.00
71476;BME280;59286;59.274;17.974;2023-08-08T03:20:17;98298.50;;;16.14;100.00
71476;BME280;59286;59.274;17.974;2023-08-08T03:22:43;98284.59;;;16.00;100.00
71476;BME280;59286;59.274;17.974;2023-08-08T03:25:08;98312.81;;;16.17;100.00
71476;BME280;59286;59.274;17.974;2023-08-08T03:27:33;98304.50;;;16.15;100.00
71476;BME280;59286;59.274;17.974;2023-08-08T03:29:59;98307.53;;;16.20;100.00
71476;BME280;59286;59.274;17.974;2023-08-08T03:32:24;98296.59;;;16.15;100.00
71476;BME280;59286;59.274;17.974;2023-08-08T03:34:49;98291.69;;;16.13;100.00
71476;BME280;59286;59.274;17.974;2023-08-08T03:37:15;98288.66;;;16.15;100.00
71476;BME280;59286;59.274;17.974;2023-08-08T03:39:40;98274.31;;;16.16;100.00
71476;BME280;59286;59.274;17.974;2023-08-08T03:42:06;98264.97;;;16.01;100.00
71476;BME280;59286;59.274;17.974;2023-08-08T03:44:31;98267.22;;;16.02;100.00
71476;BME280;59286;59.274;17.974;2023-08-08T03:46:56;98279.66;;;16.09;100.00
71476;BME280;59286;59.274;17.974;2023-08-08T03:49:22;98264.97;;;16.01;100.00
71476;BME280;59286;59.274;17.974;2023-08-08T03:51:47;98253.69;;;15.93;100.00
71476;BME280;59286;59.274;17.974;2023-08-08T03:54:13;98259.69;;;16.01;100.00
71476;BME280;59286;59.274;17.974;2023-08-08T03:56:39;98267.59;;;16.01;100.00
71476;BME280;59286;59.274;17.974;2023-08-08T03:59:04;98255.56;;;15.89;100.00
71476;BME280;59286;59.274;17.974;2023-08-08T04:01:29;98249.16;;;15.90;100.00
71476;BME280;59286;59.274;17.974;2023-08-08T04:03:55;98249.16;;;15.94;100.00
71476;BME280;59286;59.274;17.974;2023-08-08T04:06:20;98249.16;;;15.94;100.00
71476;BME280;59286;59.274;17.974;2023-08-08T04:08:45;98246.09;;;15.99;100.00
71476;BME280;59286;59.274;17.974;2023-08-08T04:11:11;98234.41;;;15.93;100.00
71476;BME280;59286;59.274;17.974;2023-08-08T04:13:36;98251.72;;;16.04;100.00
71476;BME280;59286;59.274;17.974;2023-08-08T04:16:02;98243.44;;;16.02;100.00
71476;BME280;59286;59.274;17.974;2023-08-08T04:18:27;98255.91;;;15.98;100.00
71476;BME280;59286;59.274;17.974;2023-08-08T04:20:52;98249.91;;;15.94;100.00
71476;BME280;59286;59.274;17.974;2023-08-08T04:23:18;98254.09;;;15.85;100.00
71476;BME280;59286;59.274;17.974;2023-08-08T04:25:44;98248.50;;;15.76;100.00
71476;BME280;59286;59.274;17.974;2023-08-08T04:28:09;98247.78;;;15.65;100.00
71476;BME280;59286;59.274;17.974;2023-08-08T04:30:35;98239.91;;;15.54;100.00
71476;BME280;59286;59.274;17.974;2023-08-08T04:33:00;98236.91;;;15.48;100.00
71476;BME280;59286;59.274;17.974;2023-08-08T04:35:25;98240.72;;;15.44;100.00
71476;BME280;59286;59.274;17.974;2023-08-08T04:37:51;98235.41;;;15.37;100.00
71476;BME280;59286;59.274;17.974;2023-08-08T04:40:16;98227.88;;;15.42;100.00
71476;BME280;59286;59.274;17.974;2023-08-08T04:42:42;98227.13;;;15.35;100.00
71476;BME280;59286;59.274;17.974;2023-08-08T04:45:08;98227.16;;;15.28;100.00
71476;BME280;59286;59.274;17.974;2023-08-08T04:47:33;98232.41;;;15.31;100.00
71476;BME280;59286;59.274;17.974;2023-08-08T04:49:59;98230.94;;;15.30;100.00
71476;BME280;59286;59.274;17.974;2023-08-08T04:52:24;98225.66;;;15.30;100.00
71476;BME280;59286;59.274;17.974;2023-08-08T04:54:49;98225.63;;;15.34;100.00
71476;BME280;59286;59.274;17.974;2023-08-08T04:57:15;98212.81;;;15.32;100.00
71476;BME280;59286;59.274;17.974;2023-08-08T04:59:40;98214.69;;;15.35;100.00
71476;BME280;59286;59.274;17.974;2023-08-08T05:02:05;98212.03;;;15.35;100.00
71476;BME280;59286;59.274;17.974;2023-08-08T05:04:31;98208.28;;;15.33;100.00
71476;BME280;59286;59.274;17.974;2023-08-08T05:06:56;98206.75;;;15.35;100.00
71476;BME280;59286;59.274;17.974;2023-08-08T05:09:22;98205.25;;;15.38;100.00
71476;BME280;59286;59.274;17.974;2023-08-08T05:11:52;98193.16;;;15.37;100.00
71476;BME280;59286;59.274;17.974;2023-08-08T05:14:17;98189.44;;;15.41;100.00
71476;BME280;59286;59.274;17.974;2023-08-08T05:16:42;98187.16;;;15.43;100.00
71476;BME280;59286;59.274;17.974;2023-08-08T05:19:08;98187.53;;;15.45;100.00
71476;BME280;59286;59.274;17.974;2023-08-08T05:21:34;98185.63;;;15.46;100.00
71476;BME280;59286;59.274;17.974;2023-08-08T05:23:59;98185.59;;;15.53;100.00
71476;BME280;59286;59.274;17.974;2023-08-08T05:26:25;98180.69;;;15.48;100.00
71476;BME280;59286;59.274;17.974;2023-08-08T05:28:50;98180.34;;;15.49;100.00
71476;BME280;59286;59.274;17.974;2023-08-08T05:31:16;98172.75;;;15.51;100.00
71476;BME280;59286;59.274;17.974;2023-08-08T05:33:41;98166.72;;;15.55;100.00
71476;BME280;59286;59.274;17.974;2023-08-08T05:36:06;98161.09;;;15.52;100.00
71476;BME280;59286;59.274;17.974;2023-08-08T05:38:32;98156.91;;;15.51;100.00
71476;BME280;59286;59.274;17.974;2023-08-08T05:40:57;98155.03;;;15.56;100.00
71476;BME280;59286;59.274;17.974;2023-08-08T05:43:22;98141.06;;;15.51;100.00
71476;BME280;59286;59.274;17.974;2023-08-08T05:45:48;98138.06;;;15.57;100.00
71476;BME280;59286;59.274;17.974;2023-08-08T05:48:13;98130.88;;;15.61;100.00
71476;BME280;59286;59.274;17.974;2023-08-08T05:50:39;98126.69;;;15.60;100.00
71476;BME280;59286;59.274;17.974;2023-08-08T05:53:05;98124.44;;;15.62;100.00
71476;BME280;59286;59.274;17.974;2023-08-08T05:55:30;98121.75;;;15.65;100.00
71476;BME280;59286;59.274;17.974;2023-08-08T05:57:55;98116.78;;;15.74;100.00
71476;BME280;59286;59.274;17.974;2023-08-08T06:00:21;98104.75;;;15.73;100.00
71476;BME280;59286;59.274;17.974;2023-08-08T06:02:46;98099.50;;;15.66;100.00
71476;BME280;59286;59.274;17.974;2023-08-08T06:05:12;98103.22;;;15.76;100.00
71476;BME280;59286;59.274;17.974;2023-08-08T06:07:38;98081.34;;;15.75;100.00
71476;BME280;59286;59.274;17.974;2023-08-08T06:10:04;98086.22;;;15.77;100.00
71476;BME280;59286;59.274;17.974;2023-08-08T06:12:29;98076.41;;;15.77;100.00
71476;BME280;59286;59.274;17.974;2023-08-08T06:14:55;98077.88;;;15.82;100.00
71476;BME280;59286;59.274;17.974;2023-08-08T06:17:20;98085.72;;;15.92;100.00
71476;BME280;59286;59.274;17.974;2023-08-08T06:19:45;98075.16;;;15.92;100.00
71476;BME280;59286;59.274;17.974;2023-08-08T06:22:11;98070.56;;;16.00;100.00
71476;BME280;59286;59.274;17.974;2023-08-08T06:24:37;98067.56;;;15.98;100.00
71476;BME280;59286;59.274;17.974;2023-08-08T06:27:02;98065.97;;;16.04;100.00
71476;BME280;59286;59.274;17.974;2023-08-08T06:29:28;98061.13;;;15.99;100.00
71476;BME280;59286;59.274;17.974;2023-08-08T06:31:53;98060.75;;;15.97;100.00
71476;BME280;59286;59.274;17.974;2023-08-08T06:34:19;98039.75;;;15.83;100.00
71476;BME280;59286;59.274;17.974;2023-08-08T06:36:44;98051.00;;;15.94;100.00
71476;BME280;59286;59.274;17.974;2023-08-08T06:39:12;98026.28;;;15.67;100.00
71476;BME280;59286;59.274;17.974;2023-08-08T06:41:37;98049.19;;;15.84;100.00
71476;BME280;59286;59.274;17.974;2023-08-08T06:44:04;98044.25;;;15.86;100.00
71476;BME280;59286;59.274;17.974;2023-08-08T06:46:29;98031.44;;;15.84;100.00
71476;BME280;59286;59.274;17.974;2023-08-08T06:48:55;98033.66;;;15.89;100.00
71476;BME280;59286;59.274;17.974;2023-08-08T06:51:24;98041.13;;;15.98;100.00
71476;BME280;59286;59.274;17.974;2023-08-08T06:53:50;98040.72;;;16.03;100.00
71476;BME280;59286;59.274;17.974;2023-08-08T06:56:15;98030.91;;;16.03;100.00
71476;BME280;59286;59.274;17.974;2023-08-08T06:58:41;98025.97;;;16.05;100.00
71476;BME280;59286;59.274;17.974;2023-08-08T07:01:06;98029.69;;;16.08;100.00
71476;BME280;59286;59.274;17.974;2023-08-08T07:03:31;98025.22;;;16.05;100.00
71476;BME280;59286;59.274;17.974;2023-08-08T07:05:57;98026.66;;;16.09;100.00
71476;BME280;59286;59.274;17.974;2023-08-08T07:08:23;98026.97;;;16.18;100.00
71476;BME280;59286;59.274;17.974;2023-08-08T07:10:49;98015.31;;;16.12;100.00
71476;BME280;59286;59.274;17.974;2023-08-08T07:13:14;98022.09;;;16.13;100.00
71476;BME280;59286;59.274;17.974;2023-08-08T07:15:41;98027.66;;;16.26;100.00
71476;BME280;59286;59.274;17.974;2023-08-08T07:18:06;98027.25;;;16.27;100.00
71476;BME280;59286;59.274;17.974;2023-08-08T07:20:31;98026.78;;;16.36;100.00
71476;BME280;59286;59.274;17.974;2023-08-08T07:22:57;98023.34;;;16.39;100.00
71476;BME280;59286;59.274;17.974;2023-08-08T07:25:22;98029.31;;;16.46;100.00
71476;BME280;59286;59.274;17.974;2023-08-08T07:27:48;98031.50;;;16.55;100.00
71476;BME280;59286;59.274;17.974;2023-08-08T07:30:13;98025.91;;;16.46;100.00
71476;BME280;59286;59.274;17.974;2023-08-08T07:32:39;98037.97;;;16.51;100.00
71476;BME280;59286;59.274;17.974;2023-08-08T07:35:04;98020.34;;;16.37;100.00
71476;BME280;59286;59.274;17.974;2023-08-08T07:37:31;98043.47;;;16.29;100.00
71476;BME280;59286;59.274;17.974;2023-08-08T07:39:57;98015.59;;;16.21;100.00
71476;BME280;59286;59.274;17.974;2023-08-08T07:42:23;98036.28;;;16.30;100.00
71476;BME280;59286;59.274;17.974;2023-08-08T07:44:48;98037.66;;;16.41;100.00
71476;BME280;59286;59.274;17.974;2023-08-08T07:47:13;98024.88;;;16.36;100.00
71476;BME280;59286;59.274;17.974;2023-08-08T07:49:39;98022.56;;;16.42;100.00
71476;BME280;59286;59.274;17.974;2023-08-08T07:52:04;98014.91;;;16.51;100.00
71476;BME280;59286;59.274;17.974;2023-08-08T07:54:30;98008.38;;;16.63;100.00
71476;BME280;59286;59.274;17.974;2023-08-08T07:56:55;98022.13;;;16.81;100.00
71476;BME280;59286;59.274;17.974;2023-08-08T07:59:21;98004.75;;;16.80;100.00
71476;BME280;59286;59.274;17.974;2023-08-08T08:01:46;98012.69;;;17.06;100.00
71476;BME280;59286;59.274;17.974;2023-08-08T08:04:12;97999.31;;;16.90;100.00
71476;BME280;59286;59.274;17.974;2023-08-08T08:06:37;98001.44;;;16.99;100.00
71476;BME280;59286;59.274;17.974;2023-08-08T08:09:03;98018.69;;;17.10;100.00
71476;BME280;59286;59.274;17.974;2023-08-08T08:11:28;98027.34;;;17.14;100.00
71476;BME280;59286;59.274;17.974;2023-08-08T08:13:54;98010.50;;;17.01;100.00
71476;BME280;59286;59.274;17.974;2023-08-08T08:16:19;98023.97;;;17.10;100.00
71476;BME280;59286;59.274;17.974;2023-08-08T08:18:45;98005.16;;;17.05;100.00
71476;BME280;59286;59.274;17.974;2023-08-08T08:21:13;98024.28;;;17.16;100.00
71476;BME280;59286;59.274;17.974;2023-08-08T08:23:38;98022.72;;;16.92;100.00
71476;BME280;59286;59.274;17.974;2023-08-08T08:26:03;98026.44;;;16.98;100.00
71476;BME280;59286;59.274;17.974;2023-08-08T08:28:29;98029.53;;;16.93;100.00
71476;BME280;59286;59.274;17.974;2023-08-08T08:30:54;98031.53;;;16.85;100.00
71476;BME280;59286;59.274;17.974;2023-08-08T08:33:19;98028.97;;;16.75;100.00
71476;BME280;59286;59.274;17.974;2023-08-08T08:35:45;98040.00;;;16.70;100.00
71476;BME280;59286;59.274;17.974;2023-08-08T08:38:11;98039.66;;;16.68;100.00
71476;BME280;59286;59.274;17.974;2023-08-08T08:40:37;98053.16;;;16.77;100.00
71476;BME280;59286;59.274;17.974;2023-08-08T08:43:04;98047.41;;;16.85;100.00
71476;BME280;59286;59.274;17.974;2023-08-08T08:45:30;98037.00;;;16.98;100.00
71476;BME280;59286;59.274;17.974;2023-08-08T08:47:56;98057.06;;;17.25;100.00
71476;BME280;59286;59.274;17.974;2023-08-08T08:50:22;98056.94;;;17.32;100.00
71476;BME280;59286;59.274;17.974;2023-08-08T08:52:48;98053.63;;;17.28;100.00
71476;BME280;59286;59.274;17.974;2023-08-08T08:55:14;98034.63;;;17.07;100.00
71476;BME280;59286;59.274;17.974;2023-08-08T08:57:39;98038.72;;;17.11;100.00
71476;BME280;59286;59.274;17.974;2023-08-08T09:00:05;98057.06;;;17.25;100.00
71476;BME280;59286;59.274;17.974;2023-08-08T09:02:31;98075.06;;;17.37;100.00
71476;BME280;59286;59.274;17.974;2023-08-08T09:04:59;98077.84;;;17.27;100.00
71476;BME280;59286;59.274;17.974;2023-08-08T09:07:29;98081.59;;;17.29;100.00
71476;BME280;59286;59.274;17.974;2023-08-08T09:09:56;98080.19;;;17.21;100.00
71476;BME280;59286;59.274;17.974;2023-08-08T09:12:21;98076.84;;;17.17;100.00
71476;BME280;59286;59.274;17.974;2023-08-08T09:14:54;98092.59;;;17.28;100.00
71476;BME280;59286;59.274;17.974;2023-08-08T09:17:21;98073.03;;;17.18;100.00
71476;BME280;59286;59.274;17.974;2023-08-08T09:19:46;98087.84;;;17.42;100.00
71476;BME280;59286;59.274;17.974;2023-08-08T09:22:13;98080.97;;;17.49;100.00
71476;BME280;59286;59.274;17.974;2023-08-08T09:24:42;98095.16;;;17.62;100.00
71476;BME280;59286;59.274;17.974;2023-08-08T09:27:08;98079.81;;;17.50;100.00
71476;BME280;59286;59.274;17.974;2023-08-08T09:29:35;98106.47;;;17.66;100.00
71476;BME280;59286;59.274;17.974;2023-08-08T09:32:05;98083.97;;;17.51;100.00
71476;BME280;59286;59.274;17.974;2023-08-08T09:34:31;98110.25;;;17.65;100.00
71476;BME280;59286;59.274;17.974;2023-08-08T09:36:57;98089.69;;;17.45;100.00
71476;BME280;59286;59.274;17.974;2023-08-08T09:39:22;98114.41;;;17.66;100.00
71476;BME280;59286;59.274;17.974;2023-08-08T09:41:48;98098.34;;;17.50;100.00
71476;BME280;59286;59.274;17.974;2023-08-08T09:44:14;98125.91;;;17.56;100.00
71476;BME280;59286;59.274;17.974;2023-08-08T09:46:40;98128.69;;;17.45;100.00
71476;BME280;59286;59.274;17.974;2023-08-08T09:49:06;98126.00;;;17.49;100.00
71476;BME280;59286;59.274;17.974;2023-08-08T09:51:31;98134.31;;;17.51;100.00
71476;BME280;59286;59.274;17.974;2023-08-08T09:53:59;98113.38;;;17.29;100.00
71476;BME280;59286;59.274;17.974;2023-08-08T09:56:25;98126.78;;;17.15;100.00
71476;BME280;59286;59.274;17.974;2023-08-08T09:58:52;98116.00;;;16.99;100.00
71476;BME280;59286;59.274;17.974;2023-08-08T10:01:19;98161.13;;;17.22;100.00
71476;BME280;59286;59.274;17.974;2023-08-08T10:03:45;98159.97;;;17.23;100.00
71476;BME280;59286;59.274;17.974;2023-08-08T10:06:11;98158.47;;;17.22;100.00
71476;BME280;59286;59.274;17.974;2023-08-08T10:08:36;98172.06;;;17.24;100.00
71476;BME280;59286;59.274;17.974;2023-08-08T10:11:02;98158.63;;;17.08;100.00
71476;BME280;59286;59.274;17.974;2023-08-08T10:13:30;98170.19;;;16.88;100.00
71476;BME280;59286;59.274;17.974;2023-08-08T10:15:56;98189.75;;;16.97;100.00
71476;BME280;59286;59.274;17.974;2023-08-08T10:18:22;98183.75;;;16.93;100.00
71476;BME280;59286;59.274;17.974;2023-08-08T10:20:48;98204.97;;;16.90;100.00
71476;BME280;59286;59.274;17.974;2023-08-08T10:23:18;98187.75;;;16.71;100.00
71476;BME280;59286;59.274;17.974;2023-08-08T10:25:51;98212.72;;;16.70;100.00
71476;BME280;59286;59.274;17.974;2023-08-08T10:28:20;98221.09;;;16.65;100.00
71476;BME280;59286;59.274;17.974;2023-08-08T10:30:46;98225.69;;;16.54;100.00
71476;BME280;59286;59.274;17.974;2023-08-08T10:33:23;98224.16;;;16.60;100.00
71476;BME280;59286;59.274;17.974;2023-08-08T10:36:06;98233.59;;;16.61;100.00
71476;BME280;59286;59.274;17.974;2023-08-08T10:38:43;98236.25;;;16.61;100.00
71476;BME280;59286;59.274;17.974;2023-08-08T10:41:13;98246.47;;;16.59;100.00
71476;BME280;59286;59.274;17.974;2023-08-08T10:43:49;98240.94;;;16.36;100.00
71476;BME280;59286;59.274;17.974;2023-08-08T10:46:27;98256.72;;;16.50;100.00
71476;BME280;59286;59.274;17.974;2023-08-08T10:48:54;98270.69;;;16.47;100.00
71476;BME280;59286;59.274;17.974;2023-08-08T10:51:20;98252.69;;;16.28;100.00
71476;BME280;59286;59.274;17.974;2023-08-08T10:53:46;98263.94;;;16.42;100.00
71476;BME280;59286;59.274;17.974;2023-08-08T10:56:14;98278.75;;;16.33;100.00
71476;BME280;59286;59.274;17.974;2023-08-08T10:58:41;98276.16;;;16.19;100.00
71476;BME280;59286;59.274;17.974;2023-08-08T11:01:07;98267.56;;;16.08;100.00
71476;BME280;59286;59.274;17.974;2023-08-08T11:03:38;98280.47;;;15.95;100.00
71476;BME280;59286;59.274;17.974;2023-08-08T11:06:06;98293.25;;;16.00;100.00
71476;BME280;59286;59.274;17.974;2023-08-08T11:08:32;98318.84;;;16.21;100.00
71476;BME280;59286;59.274;17.974;2023-08-08T11:10:58;98326.78;;;16.17;100.00
71476;BME280;59286;59.274;17.974;2023-08-08T11:13:24;98333.25;;;16.13;100.00
71476;BME280;59286;59.274;17.974;2023-08-08T11:15:49;98329.41;;;16.21;100.00
71476;BME280;59286;59.274;17.974;2023-08-08T11:18:16;98323.88;;;15.98;100.00
71476;BME280;59286;59.274;17.974;2023-08-08T11:20:41;98318.22;;;15.96;100.00
71476;BME280;59286;59.274;17.974;2023-08-08T11:23:07;98358.91;;;16.16;100.00
71476;BME280;59286;59.274;17.974;2023-08-08T11:25:36;98332.13;;;16.07;100.00
71476;BME280;59286;59.274;17.974;2023-08-08T11:28:02;98360.59;;;16.47;100.00
71476;BME280;59286;59.274;17.974;2023-08-08T11:30:29;98366.22;;;16.63;100.00
71476;BME280;59286;59.274;17.974;2023-08-08T11:32:55;98353.84;;;16.42;100.00
71476;BME280;59286;59.274;17.974;2023-08-08T11:35:24;98379.50;;;16.53;100.00
71476;BME280;59286;59.274;17.974;2023-08-08T11:37:51;98378.34;;;16.57;100.00
71476;BME280;59286;59.274;17.974;2023-08-08T11:40:18;98381.72;;;16.61;100.00
71476;BME280;59286;59.274;17.974;2023-08-08T11:42:44;98388.09;;;16.71;100.00
71476;BME280;59286;59.274;17.974;2023-08-08T11:45:13;98373.75;;;16.68;100.00
71476;BME280;59286;59.274;17.974;2023-08-08T11:47:39;98399.72;;;16.80;100.00
71476;BME280;59286;59.274;17.974;2023-08-08T11:50:06;98400.97;;;16.65;100.00
71476;BME280;59286;59.274;17.974;2023-08-08T11:52:34;98398.34;;;16.65;100.00
71476;BME280;59286;59.274;17.974;2023-08-08T11:55:00;98401.81;;;16.48;100.00
71476;BME280;59286;59.274;17.974;2023-08-08T11:57:26;98418.44;;;16.52;100.00
71476;BME280;59286;59.274;17.974;2023-08-08T11:59:55;98403.38;;;16.35;100.00
71476;BME280;59286;59.274;17.974;2023-08-08T12:02:22;98428.66;;;16.50;100.00
71476;BME280;59286;59.274;17.974;2023-08-08T12:04:48;98419.13;;;16.63;100.00
71476;BME280;59286;59.274;17.974;2023-08-08T12:07:13;98403.97;;;16.67;100.00
71476;BME280;59286;59.274;17.974;2023-08-08T12:09:39;98424.31;;;16.77;100.00
71476;BME280;59286;59.274;17.974;2023-08-08T12:12:05;98424.78;;;16.65;100.00
71476;BME280;59286;59.274;17.974;2023-08-08T12:14:37;98429.00;;;16.56;100.00
71476;BME280;59286;59.274;17.974;2023-08-08T12:17:02;98456.53;;;16.65;100.00
71476;BME280;59286;59.274;17.974;2023-08-08T12:19:27;98450.16;;;16.56;100.00
71476;BME280;59286;59.274;17.974;2023-08-08T12:21:54;98448.63;;;16.55;99.95
71476;BME280;59286;59.274;17.974;2023-08-08T12:24:19;98455.78;;;16.65;99.70
71476;BME280;59286;59.274;17.974;2023-08-08T12:26:45;98440.72;;;16.51;96.46
71476;BME280;59286;59.274;17.974;2023-08-08T12:29:10;98449.81;;;16.50;94.55
71476;BME280;59286;59.274;17.974;2023-08-08T12:31:37;98476.97;;;16.47;96.56
71476;BME280;59286;59.274;17.974;2023-08-08T12:34:02;98475.84;;;16.41;98.03